createdAt,value
2019-04-09T00:00:48.489Z,29.80
2019-04-09T00:03:19.023Z,30.20
2019-04-09T00:05:49.980Z,28.60
2019-04-09T00:08:20.880Z,29.97
2019-04-09T00:10:51.110Z,29.37
2019-04-09T00:13:21.214Z,29.10
2019-04-09T00:15:50.520Z,31.17
2019-04-09T00:18:19.775Z,32.00
2019-04-09T00:20:49.270Z,30.97
2019-04-09T00:23:18.807Z,29.77
2019-04-09T00:25:48.010Z,29.40
2019-04-09T00:28:17.649Z,31.00
2019-04-09T00:30:47.515Z,31.63
2019-04-09T00:33:17.697Z,29.30
2019-04-09T00:35:47.283Z,29.87
2019-04-09T00:38:16.666Z,29.32
2019-04-09T00:40:46.501Z,30.10
2019-04-09T00:43:16.655Z,31.40
2019-04-09T00:45:46.778Z,32.90
2019-04-09T00:48:16.450Z,31.10
2019-04-09T00:50:45.851Z,31.25
2019-04-09T00:53:15.941Z,32.10
2019-04-09T00:55:45.916Z,34.00
2019-04-09T00:58:16.255Z,32.17
2019-04-09T01:00:55.004Z,33.50
2019-04-09T01:03:25.956Z,32.70
2019-04-09T01:05:55.331Z,35.00
2019-04-09T01:08:24.823Z,33.97
2019-04-09T01:10:54.870Z,33.35
2019-04-09T01:13:24.619Z,32.53
2019-04-09T01:15:55.428Z,34.48
2019-04-09T01:18:25.248Z,33.40
2019-04-09T01:20:54.617Z,34.38
2019-04-09T01:23:24.350Z,31.52
2019-04-09T01:26:11.558Z,32.40
2019-04-09T01:29:06.090Z,33.15
2019-04-09T01:31:39.875Z,31.85
2019-04-09T01:34:27.915Z,33.70
2019-04-09T01:37:25.207Z,32.78
2019-04-09T01:40:12.984Z,34.05
2019-04-09T01:43:02.168Z,34.70
2019-04-09T01:45:50.209Z,36.13
2019-04-09T01:48:34.184Z,35.65
2019-04-09T01:51:31.655Z,34.33
2019-04-09T01:54:32.255Z,34.33
2019-04-09T01:57:22.761Z,36.35
2019-04-09T01:59:55.885Z,35.45
2019-04-09T02:02:37.819Z,36.73
2019-04-09T02:05:16.063Z,36.88
2019-04-09T02:08:03.648Z,34.53
2019-04-09T02:10:51.797Z,36.30
2019-04-09T02:13:28.559Z,37.60
2019-04-09T02:16:04.083Z,36.45
2019-04-09T02:18:56.409Z,37.30
2019-04-09T02:21:37.992Z,34.10
2019-04-09T02:24:16.634Z,38.17
2019-04-09T02:27:01.687Z,37.10
2019-04-09T02:29:43.360Z,35.13
2019-04-09T02:32:32.114Z,35.08
2019-04-09T02:35:19.069Z,37.60
2019-04-09T02:38:10.645Z,37.10
2019-04-09T02:41:01.147Z,34.83
2019-04-09T02:43:40.711Z,36.83
2019-04-09T02:46:28.690Z,36.45
2019-04-09T02:49:14.624Z,36.13
2019-04-09T02:52:15.530Z,36.75
2019-04-09T02:55:18.481Z,35.75
2019-04-09T02:58:06.835Z,34.08
2019-04-09T03:00:42.807Z,39.63
2019-04-09T03:03:35.401Z,36.28
2019-04-09T03:06:13.814Z,37.95
2019-04-09T03:08:58.025Z,35.38
2019-04-09T03:11:38.103Z,35.60
2019-04-09T03:14:39.167Z,34.48
2019-04-09T03:17:25.979Z,34.90
2019-04-09T03:20:09.945Z,37.15
2019-04-09T03:22:57.174Z,35.70
2019-04-09T03:25:51.589Z,34.80
2019-04-09T03:28:31.630Z,35.68
2019-04-09T03:31:14.478Z,36.58
2019-04-09T03:33:56.401Z,35.33
2019-04-09T03:36:33.605Z,35.58
2019-04-09T03:39:25.097Z,35.80
2019-04-09T03:42:01.405Z,37.20
2019-04-09T03:44:48.404Z,36.83
2019-04-09T03:47:35.010Z,34.83
2019-04-09T03:50:37.604Z,37.55
2019-04-09T03:53:16.683Z,34.85
2019-04-09T03:56:07.634Z,34.15
2019-04-09T03:58:44.191Z,36.75
2019-04-09T04:01:39.003Z,37.60
2019-04-09T04:04:15.030Z,36.77
2019-04-09T04:07:19.482Z,33.90
2019-04-09T04:10:02.090Z,36.73
2019-04-09T04:13:04.071Z,33.92
2019-04-09T04:15:43.950Z,36.42
2019-04-09T04:18:31.894Z,34.92
2019-04-09T04:21:12.163Z,36.70
2019-04-09T04:23:58.189Z,36.58
2019-04-09T04:26:41.355Z,34.08
2019-04-09T04:29:41.710Z,34.33
2019-04-09T04:32:17.725Z,34.25
2019-04-09T04:34:53.145Z,36.68
2019-04-09T04:37:56.651Z,35.85
2019-04-09T04:40:41.738Z,36.35
2019-04-09T04:43:16.919Z,35.63
2019-04-09T04:46:23.639Z,36.30
2019-04-09T04:49:18.590Z,36.90
2019-04-09T04:52:05.787Z,34.60
2019-04-09T04:54:57.430Z,36.28
2019-04-09T04:57:48.547Z,34.45
2019-04-09T05:00:37.311Z,37.00
2019-04-09T05:03:17.192Z,35.25
2019-04-09T05:05:55.729Z,38.02
2019-04-09T05:08:46.887Z,37.53
2019-04-09T05:11:33.354Z,37.38
2019-04-09T05:14:17.267Z,37.00
2019-04-09T05:16:53.786Z,37.05
2019-04-09T05:19:48.836Z,37.83
2019-04-09T05:22:52.749Z,43.30
2019-04-09T05:25:35.920Z,53.90
2019-04-09T05:28:24.927Z,46.20
2019-04-09T05:31:14.676Z,40.67
2019-04-09T05:34:09.540Z,38.00
2019-04-09T05:36:50.370Z,36.75
2019-04-09T05:39:32.260Z,37.25
2019-04-09T05:42:19.302Z,37.13
2019-04-09T05:45:14.022Z,35.35
2019-04-09T05:47:48.627Z,35.70
2019-04-09T05:50:36.178Z,39.10
2019-04-09T05:53:34.592Z,35.83
2019-04-09T05:56:22.187Z,36.88
2019-04-09T05:59:06.339Z,34.15
2019-04-09T06:01:49.125Z,35.15
2019-04-09T06:04:34.545Z,34.33
2019-04-09T06:07:21.977Z,32.60
2019-04-09T06:09:51.451Z,35.25
2019-04-09T06:12:20.908Z,33.23
2019-04-09T06:14:51.843Z,33.63
2019-04-09T06:17:21.234Z,35.70
2019-04-09T06:19:50.559Z,33.28
2019-04-09T06:22:19.789Z,32.15
2019-04-09T06:24:49.909Z,35.30
2019-04-09T06:27:20.302Z,33.60
2019-04-09T06:29:50.078Z,35.10
2019-04-09T06:32:41.664Z,34.55
2019-04-09T06:35:23.899Z,34.90
2019-04-09T06:38:11.258Z,36.28
2019-04-09T06:41:03.475Z,33.92
2019-04-09T06:43:41.968Z,34.67
2019-04-09T06:46:30.010Z,35.00
2019-04-09T06:49:18.319Z,33.60
2019-04-09T06:52:18.391Z,34.18
2019-04-09T06:55:10.605Z,35.23
2019-04-09T06:58:02.591Z,34.25
2019-04-09T07:01:02.168Z,32.98
2019-04-09T07:03:49.072Z,32.65
2019-04-09T07:06:29.127Z,34.45
2019-04-09T07:09:15.873Z,32.83
2019-04-09T07:12:04.128Z,33.05
2019-04-09T07:14:53.289Z,36.68
2019-04-09T07:17:44.871Z,35.03
2019-04-09T07:20:37.090Z,34.65
2019-04-09T07:23:15.487Z,36.10
2019-04-09T07:26:04.049Z,35.65
2019-04-09T07:28:42.108Z,35.98
2019-04-09T07:31:35.406Z,33.75
2019-04-09T07:34:24.326Z,35.83
2019-04-09T07:37:24.582Z,36.37
2019-04-09T07:40:02.595Z,34.43
2019-04-09T07:42:49.707Z,35.52
2019-04-09T07:45:47.231Z,35.58
2019-04-09T07:48:36.527Z,39.47
2019-04-09T07:51:17.347Z,37.43
2019-04-09T07:54:05.918Z,40.55
2019-04-09T07:56:40.909Z,37.83
2019-04-09T07:59:32.359Z,39.50
2019-04-09T08:02:25.827Z,38.88
2019-04-09T08:05:13.901Z,40.43
2019-04-09T08:08:10.683Z,41.75
2019-04-09T08:10:52.874Z,42.50
2019-04-09T08:13:40.812Z,41.45
2019-04-09T08:16:32.058Z,38.00
2019-04-09T08:19:20.670Z,39.00
2019-04-09T08:22:06.884Z,40.27
2019-04-09T08:25:07.154Z,38.13
2019-04-09T08:27:46.739Z,39.70
2019-04-09T08:30:42.021Z,40.20
2019-04-09T08:33:22.592Z,40.27
2019-04-09T08:36:16.056Z,39.67
2019-04-09T08:39:10.702Z,41.03
2019-04-09T08:41:56.258Z,39.80
2019-04-09T08:44:39.680Z,38.40
2019-04-09T08:47:24.029Z,42.03
2019-04-09T08:50:16.705Z,41.97
2019-04-09T08:52:56.483Z,42.10
2019-04-09T08:55:48.050Z,39.30
2019-04-09T08:58:35.630Z,43.20
2019-04-09T09:01:39.305Z,41.60
2019-04-09T09:04:15.453Z,41.07
2019-04-09T09:06:52.131Z,40.40
2019-04-09T09:09:46.520Z,40.83
2019-04-09T09:12:40.398Z,41.27
2019-04-09T09:15:25.068Z,41.50
2019-04-09T09:18:05.661Z,40.90
2019-04-09T09:20:57.476Z,40.27
2019-04-09T09:23:52.163Z,41.67
2019-04-09T09:26:29.615Z,41.33
2019-04-09T09:29:11.132Z,43.73
2019-04-09T09:32:09.077Z,44.07
2019-04-09T09:35:09.723Z,42.60
2019-04-09T09:37:52.672Z,41.00
2019-04-09T09:40:39.466Z,40.00
2019-04-09T09:43:43.632Z,35.90
2019-04-09T09:46:22.077Z,37.00
2019-04-09T09:49:08.290Z,37.90
2019-04-09T09:51:51.638Z,36.20
2019-04-09T09:54:39.544Z,38.60
2019-04-09T09:57:27.897Z,32.60
2019-04-09T10:00:07.141Z,39.40
2019-04-09T10:02:53.934Z,35.87
2019-04-09T10:05:42.847Z,35.27
2019-04-09T10:08:33.897Z,35.87
2019-04-09T10:11:14.756Z,36.97
2019-04-09T10:14:03.643Z,35.60
2019-04-09T10:16:53.758Z,36.40
2019-04-09T10:19:47.066Z,38.13
2019-04-09T10:22:33.923Z,38.47
2019-04-09T10:25:42.388Z,36.10
2019-04-09T10:28:31.109Z,33.70
2019-04-09T10:31:26.295Z,32.77
2019-04-09T10:34:12.196Z,34.93
2019-04-09T10:36:57.407Z,37.87
2019-04-09T10:39:45.345Z,38.77
2019-04-09T10:42:41.322Z,37.03
2019-04-09T10:45:39.304Z,34.53
2019-04-09T10:48:46.015Z,35.90
2019-04-09T10:51:31.419Z,35.60
2019-04-09T10:54:18.113Z,34.57
2019-04-09T10:57:24.780Z,33.23
2019-04-09T11:00:12.249Z,32.40
2019-04-09T11:03:01.829Z,46.50
2019-04-09T11:05:48.928Z,34.30
2019-04-09T11:08:41.596Z,33.73
2019-04-09T11:11:30.869Z,33.37
2019-04-09T11:14:18.790Z,34.53
2019-04-09T11:17:14.760Z,34.07
2019-04-09T11:20:04.591Z,34.70
2019-04-09T11:22:58.484Z,32.97
2019-04-09T11:25:46.001Z,34.87
2019-04-09T11:28:49.656Z,33.27
2019-04-09T11:31:47.196Z,33.23
2019-04-09T11:34:21.859Z,31.97
2019-04-09T11:37:13.836Z,33.70
2019-04-09T11:40:02.995Z,31.50
2019-04-09T11:42:49.750Z,31.40
2019-04-09T11:45:38.107Z,33.80
2019-04-09T11:48:27.454Z,32.63
2019-04-09T11:51:11.883Z,33.03
2019-04-09T11:54:00.188Z,32.87
2019-04-09T11:56:48.862Z,35.00
2019-04-09T11:59:35.978Z,31.90
2019-04-09T12:02:17.879Z,30.63
2019-04-09T12:05:06.473Z,33.00
2019-04-09T12:07:46.286Z,32.63
2019-04-09T12:10:34.684Z,33.10
2019-04-09T12:13:27.123Z,33.07
2019-04-09T12:16:25.573Z,29.30
2019-04-09T12:19:16.739Z,30.40
2019-04-09T12:22:10.955Z,33.57
2019-04-09T12:25:09.380Z,26.40
2019-04-09T12:27:57.034Z,27.70
2019-04-09T12:30:55.412Z,30.27
2019-04-09T12:33:55.762Z,29.47
2019-04-09T12:36:37.356Z,27.73
2019-04-09T12:39:26.815Z,30.57
2019-04-09T12:42:01.802Z,28.30
2019-04-09T12:45:02.687Z,28.50
2019-04-09T12:47:46.194Z,29.80
2019-04-09T12:50:38.357Z,30.23
2019-04-09T12:53:45.995Z,29.87
2019-04-09T12:56:27.299Z,29.37
2019-04-09T12:59:04.596Z,30.47
2019-04-09T13:01:57.381Z,27.70
2019-04-09T13:04:54.931Z,27.33
2019-04-09T13:07:52.743Z,29.33
2019-04-09T13:10:42.120Z,27.07
2019-04-09T13:13:32.282Z,29.10
2019-04-09T13:16:19.063Z,30.73
2019-04-09T13:18:58.578Z,25.63
2019-04-09T13:21:35.022Z,27.60
2019-04-09T13:24:15.427Z,29.20
2019-04-09T13:26:58.416Z,29.07
2019-04-09T13:29:59.469Z,29.00
2019-04-09T13:32:41.538Z,27.37
2019-04-09T13:35:34.519Z,28.13
2019-04-09T13:38:20.728Z,30.23
2019-04-09T13:41:00.999Z,28.50
2019-04-09T13:43:48.007Z,27.70
2019-04-09T13:46:32.859Z,25.53
2019-04-09T13:49:21.249Z,28.50
2019-04-09T13:52:10.678Z,28.00
2019-04-09T13:54:40.227Z,28.67
2019-04-09T13:57:09.867Z,23.90
2019-04-09T13:59:39.192Z,25.40
2019-04-09T14:02:09.424Z,24.10
2019-04-09T14:04:43.879Z,25.87
2019-04-09T14:07:13.183Z,26.90
2019-04-09T14:09:43.814Z,25.43
2019-04-09T14:12:13.395Z,26.03
2019-04-09T14:14:42.890Z,24.73
2019-04-09T14:17:12.296Z,24.87
2019-04-09T14:19:50.980Z,25.10
2019-04-09T14:22:12.679Z,23.80
2019-04-09T14:24:42.979Z,21.90
2019-04-09T14:27:12.663Z,21.80
2019-04-09T14:29:42.946Z,20.40
2019-04-09T14:32:12.636Z,19.83
2019-04-09T14:34:42.003Z,19.77
2019-04-09T14:37:12.005Z,19.47
2019-04-09T14:39:42.441Z,21.37
2019-04-09T14:42:12.946Z,21.80
2019-04-09T14:44:42.220Z,23.37
2019-04-09T14:47:12.094Z,26.90
2019-04-09T14:49:41.755Z,28.00
2019-04-09T14:52:12.038Z,28.63
2019-04-09T14:54:41.637Z,28.23
2019-04-09T14:57:10.856Z,27.10
2019-04-09T14:59:40.249Z,26.60
2019-04-09T15:02:09.593Z,26.50
2019-04-09T15:04:39.600Z,23.83
2019-04-09T15:07:08.935Z,23.57
2019-04-09T15:09:39.134Z,24.60
2019-04-09T15:12:08.918Z,24.33
2019-04-09T15:14:38.380Z,24.30
2019-04-09T15:17:07.682Z,25.67
2019-04-09T15:19:37.454Z,25.90
2019-04-09T15:22:18.355Z,24.70
2019-04-09T15:24:48.908Z,25.87
2019-04-09T15:27:19.469Z,23.73
2019-04-09T15:29:49.919Z,23.83
2019-04-09T15:32:19.304Z,23.47
2019-04-09T15:34:49.509Z,24.13
2019-04-09T15:37:19.245Z,23.97
2019-04-09T15:39:48.858Z,24.23
2019-04-09T15:42:18.271Z,24.50
2019-04-09T15:44:48.506Z,26.33
2019-04-09T15:47:18.057Z,26.10
2019-04-09T15:49:48.326Z,27.40
2019-04-09T15:52:17.897Z,28.30
2019-04-09T15:54:47.181Z,29.73
2019-04-09T15:57:16.547Z,28.60
2019-04-09T15:59:46.814Z,30.13
2019-04-09T16:02:16.531Z,30.13
2019-04-09T16:04:46.194Z,27.10
2019-04-09T16:07:15.618Z,28.23
2019-04-09T16:09:44.973Z,27.27
2019-04-09T16:12:14.993Z,28.20
2019-04-09T16:14:44.284Z,29.10
2019-04-09T16:17:14.960Z,31.13
2019-04-09T16:19:44.384Z,32.07
2019-04-09T16:22:33.905Z,32.60
2019-04-09T16:25:06.234Z,25.90
2019-04-09T16:27:35.633Z,25.77
2019-04-09T16:30:07.480Z,24.33
2019-04-09T16:32:36.880Z,22.83
2019-04-09T16:35:09.069Z,21.30
2019-04-09T16:37:39.261Z,22.40
2019-04-09T16:40:08.870Z,22.10
2019-04-09T16:42:41.779Z,22.27
2019-04-09T16:45:10.751Z,21.20
2019-04-09T16:47:40.640Z,22.83
2019-04-09T16:50:12.494Z,22.43
2019-04-09T16:52:42.694Z,22.77
2019-04-09T16:55:13.686Z,22.10
2019-04-09T16:57:55.306Z,24.70
2019-04-09T17:00:19.823Z,23.13
2019-04-09T17:02:48.974Z,20.33
2019-04-09T17:05:18.796Z,22.70
2019-04-09T17:07:48.352Z,23.37
2019-04-09T17:10:18.349Z,21.67
2019-04-09T17:12:48.506Z,23.70
2019-04-09T17:15:17.952Z,22.37
2019-04-09T17:17:47.521Z,22.57
2019-04-09T17:20:16.974Z,23.63
2019-04-09T17:22:46.246Z,23.73
2019-04-09T17:25:16.610Z,23.97
2019-04-09T17:27:46.812Z,23.97
2019-04-09T17:30:16.299Z,25.03
2019-04-09T17:32:46.006Z,22.37
2019-04-09T17:35:16.345Z,23.10
2019-04-09T17:37:51.104Z,24.23
2019-04-09T17:40:20.648Z,22.90
2019-04-09T17:42:52.542Z,22.20
2019-04-09T17:45:22.275Z,23.03
2019-04-09T17:47:52.574Z,22.93
2019-04-09T17:50:22.231Z,23.83
2019-04-09T17:52:51.719Z,25.40
2019-04-09T17:55:21.196Z,23.63
2019-04-09T17:57:51.511Z,25.13
2019-04-09T18:00:23.790Z,22.47
2019-04-09T18:02:53.330Z,24.07
2019-04-09T18:05:23.453Z,23.93
2019-04-09T18:07:53.126Z,25.43
2019-04-09T18:10:22.538Z,25.13
2019-04-09T18:12:51.899Z,23.10
2019-04-09T18:15:23.191Z,25.17
2019-04-09T18:17:52.486Z,25.13
2019-04-09T18:20:21.819Z,24.40
2019-04-09T18:22:53.851Z,31.07
2019-04-09T18:25:54.017Z,28.10
2019-04-09T18:28:27.359Z,28.80
2019-04-09T18:30:56.614Z,27.87
2019-04-09T18:33:25.990Z,28.40
2019-04-09T18:35:55.335Z,31.27
2019-04-09T18:38:24.753Z,28.60
2019-04-09T18:40:54.884Z,28.07
2019-04-09T18:43:25.277Z,27.47
2019-04-09T18:45:54.964Z,28.07
2019-04-09T18:48:31.865Z,27.50
2019-04-09T18:50:55.640Z,27.10
2019-04-09T18:53:25.037Z,27.10
2019-04-09T18:55:55.034Z,28.83
2019-04-09T18:58:24.858Z,28.52
2019-04-09T19:00:55.860Z,28.95
2019-04-09T19:03:25.507Z,27.93
2019-04-09T19:05:55.406Z,27.62
2019-04-09T19:08:24.926Z,27.93
2019-04-09T19:10:59.161Z,28.67
2019-04-09T19:13:33.243Z,28.15
2019-04-09T19:16:10.290Z,29.48
2019-04-09T19:18:43.536Z,30.68
2019-04-09T19:21:18.504Z,31.35
2019-04-09T19:23:50.957Z,29.67
2019-04-09T19:26:28.014Z,31.50
2019-04-09T19:29:08.643Z,31.80
2019-04-09T19:31:45.296Z,31.52
2019-04-09T19:34:17.411Z,30.45
2019-04-09T19:36:53.189Z,31.27
2019-04-09T19:39:29.619Z,31.20
2019-04-09T19:42:08.972Z,31.20
2019-04-09T19:44:32.836Z,31.33
2019-04-09T19:47:02.939Z,31.68
2019-04-09T19:49:32.340Z,32.35
2019-04-09T19:52:02.110Z,32.08
2019-04-09T19:54:31.636Z,31.52
2019-04-09T19:57:01.830Z,30.50
2019-04-09T19:59:31.241Z,33.02
2019-04-09T20:02:06.325Z,33.70
2019-04-09T20:04:35.757Z,32.10
2019-04-09T20:07:05.878Z,32.65
2019-04-09T20:09:35.572Z,33.35
2019-04-09T20:12:05.217Z,34.33
2019-04-09T20:14:34.824Z,31.85
2019-04-09T20:17:07.040Z,33.25
2019-04-09T20:19:36.192Z,30.05
2019-04-09T20:22:06.028Z,33.70
2019-04-09T20:24:35.550Z,32.60
2019-04-09T20:27:04.812Z,32.80
2019-04-09T20:29:35.125Z,32.98
2019-04-09T20:32:04.647Z,34.43
2019-04-09T20:34:34.355Z,34.23
2019-04-09T20:37:03.771Z,35.05
2019-04-09T20:39:39.231Z,34.53
2019-04-09T20:42:04.516Z,35.00
2019-04-09T20:44:34.530Z,33.78
2019-04-09T20:47:04.552Z,35.05
2019-04-09T20:49:34.755Z,34.85
2019-04-09T20:52:04.123Z,35.63
2019-04-09T20:54:38.592Z,35.30
2019-04-09T20:57:09.277Z,35.98
2019-04-09T21:00:13.129Z,35.52
2019-04-09T21:03:00.452Z,35.50
2019-04-09T21:05:30.492Z,34.43
2019-04-09T21:08:00.897Z,36.68
2019-04-09T21:10:31.273Z,36.58
2019-04-09T21:13:00.900Z,35.43
2019-04-09T21:15:30.470Z,35.23
2019-04-09T21:18:00.505Z,37.60
2019-04-09T21:20:30.885Z,34.92
2019-04-09T21:23:01.196Z,38.17
2019-04-09T21:25:31.148Z,35.17
2019-04-09T21:28:01.317Z,34.90
2019-04-09T21:30:30.733Z,35.40
2019-04-09T21:33:00.450Z,35.68
2019-04-09T21:35:29.678Z,36.33
2019-04-09T21:38:00.246Z,35.68
2019-04-09T21:40:29.709Z,36.15
2019-04-09T21:42:58.976Z,36.73
2019-04-09T21:45:28.546Z,36.50
2019-04-09T21:47:57.887Z,36.23
2019-04-09T21:50:27.139Z,35.30
2019-04-09T21:52:57.164Z,36.50
2019-04-09T21:55:26.754Z,36.93
2019-04-09T21:57:56.230Z,37.40
2019-04-09T22:00:42.633Z,35.00
2019-04-09T22:03:12.123Z,36.77
2019-04-09T22:05:42.669Z,37.70
2019-04-09T22:08:12.019Z,36.23
2019-04-09T22:10:42.480Z,39.27
2019-04-09T22:13:12.270Z,39.90
2019-04-09T22:15:43.028Z,37.90
2019-04-09T22:18:19.936Z,39.08
2019-04-09T22:20:43.323Z,38.23
2019-04-09T22:23:13.766Z,36.77
2019-04-09T22:25:43.580Z,39.73
2019-04-09T22:28:12.904Z,39.85
2019-04-09T22:30:43.321Z,38.90
2019-04-09T22:33:14.860Z,38.38
2019-04-09T22:35:43.823Z,38.78
2019-04-09T22:38:14.787Z,40.25
2019-04-09T22:40:45.405Z,37.80
2019-04-09T22:43:15.061Z,38.13
2019-04-09T22:45:45.265Z,38.53
2019-04-09T22:48:15.805Z,38.70
2019-04-09T22:50:46.294Z,40.30
2019-04-09T22:53:16.448Z,40.30
2019-04-09T22:55:46.680Z,38.95
2019-04-09T22:58:17.002Z,39.35
2019-04-09T23:01:04.017Z,40.40
2019-04-09T23:04:13.767Z,38.67
2019-04-09T23:06:56.952Z,37.90
2019-04-09T23:09:48.491Z,37.10
2019-04-09T23:12:36.263Z,38.13
2019-04-09T23:15:08.972Z,39.10
2019-04-09T23:17:38.232Z,38.40
2019-04-09T23:20:07.756Z,40.52
2019-04-09T23:22:36.995Z,39.13
2019-04-09T23:25:08.461Z,39.88
2019-04-09T23:27:38.804Z,39.58
2019-04-09T23:30:08.482Z,38.70
2019-04-09T23:32:38.000Z,39.05
2019-04-09T23:35:08.315Z,38.95
2019-04-09T23:37:37.774Z,40.25
2019-04-09T23:40:07.446Z,41.70
2019-04-09T23:42:37.122Z,41.33
2019-04-09T23:45:06.585Z,39.35
2019-04-09T23:47:37.505Z,41.28
2019-04-09T23:50:07.255Z,37.08
2019-04-09T23:52:36.655Z,40.10
2019-04-09T23:55:06.877Z,36.38
2019-04-09T23:57:38.380Z,39.00
